Midvalley, Pennsylvania
Current Conditions -  °F | °C
As of 11:15 AM on Monday 22 Dec 2014 (Local Time) from KHZL Reporting Station
Overcast Overcast  
Wind Chill: 24°   Ceiling: 1200
Heat Index: 32°   Visibility: 10mi
Dew Point: 28°   Wind: 9mph
Humidity: 87%   Direction: 120°ESE
Pressure: 30.25"   Gusts: 16mph
Location:  40.8229°N, 76.3735°W
Report Text: KHZL 221615Z AUTO 12008G14KT 10SM OVC012 00/M02 A3025 RMK AO2
Loading
Personal Weather Stations






























Interactive Weather Map New forecast layout! Learn more

10-Day Weather Forecast

Advertisements
Track Severe Weather on mobile